createdAt,value
2022-12-03T00:00:25.582Z,1.92
2022-12-03T00:02:52.345Z,2.06
2022-12-03T00:05:19.008Z,1.81
2022-12-03T00:07:45.691Z,1.87
2022-12-03T00:10:12.367Z,1.56
2022-12-03T00:12:39.004Z,2.04
2022-12-03T00:15:07.187Z,2.00
2022-12-03T00:17:33.847Z,2.40
2022-12-03T00:20:00.558Z,2.32
2022-12-03T00:22:27.137Z,1.88
2022-12-03T00:24:54.029Z,1.63
2022-12-03T00:27:20.813Z,1.66
2022-12-03T00:29:47.448Z,1.51
2022-12-03T00:32:14.083Z,1.77
2022-12-03T00:34:40.682Z,2.27
2022-12-03T00:37:07.275Z,2.11
2022-12-03T00:39:33.933Z,2.22
2022-12-03T00:42:00.540Z,1.98
2022-12-03T00:44:27.149Z,1.67
2022-12-03T00:46:53.993Z,1.68
2022-12-03T00:49:20.608Z,1.56
2022-12-03T00:51:47.241Z,1.98
2022-12-03T00:54:13.954Z,2.14
2022-12-03T00:56:41.178Z,1.94
2022-12-03T00:59:07.777Z,2.13
2022-12-03T01:01:34.375Z,1.89
2022-12-03T01:04:01.038Z,1.66
2022-12-03T01:06:27.788Z,1.63
2022-12-03T01:08:54.360Z,1.65
2022-12-03T01:11:20.953Z,1.90
2022-12-03T01:13:47.575Z,2.01
2022-12-03T01:16:14.195Z,1.75
2022-12-03T01:18:40.824Z,2.01
2022-12-03T01:21:07.468Z,1.95
2022-12-03T01:23:34.082Z,1.91
2022-12-03T01:26:00.655Z,1.73
2022-12-03T01:28:27.303Z,1.75
2022-12-03T01:30:53.953Z,1.77
2022-12-03T01:33:20.568Z,1.87
2022-12-03T01:35:47.169Z,1.81
2022-12-03T01:38:13.770Z,2.08
2022-12-03T01:40:40.558Z,2.62
2022-12-03T01:43:07.232Z,2.73
2022-12-03T01:45:33.930Z,2.87
2022-12-03T01:48:00.657Z,2.41
2022-12-03T01:50:31.083Z,2.14
2022-12-03T01:53:01.333Z,1.98
2022-12-03T01:55:28.560Z,2.12
2022-12-03T01:57:59.214Z,1.93
2022-12-03T02:00:27.195Z,2.34
2022-12-03T02:03:01.945Z,2.25
2022-12-03T02:05:31.914Z,2.28
2022-12-03T02:07:58.801Z,2.50
2022-12-03T02:10:30.574Z,2.41
2022-12-03T02:13:03.923Z,2.04
2022-12-03T02:15:30.569Z,2.21
2022-12-03T02:17:57.600Z,2.46
2022-12-03T02:20:24.272Z,1.96
2022-12-03T02:23:02.610Z,1.98
2022-12-03T02:25:32.653Z,1.97
2022-12-03T02:28:00.466Z,2.08
2022-12-03T02:30:28.845Z,2.07
2022-12-03T02:32:56.391Z,2.17
2022-12-03T02:35:25.797Z,2.03
2022-12-03T02:38:00.102Z,2.12
2022-12-03T02:40:29.769Z,2.03
2022-12-03T02:42:59.699Z,2.12
2022-12-03T02:45:47.875Z,2.03
2022-12-03T02:48:18.504Z,1.94
2022-12-03T02:50:52.033Z,1.83
2022-12-03T02:53:24.572Z,1.78
2022-12-03T02:55:53.318Z,1.68
2022-12-03T02:58:22.515Z,1.87
2022-12-03T03:00:50.378Z,2.02
2022-12-03T03:03:18.392Z,1.98
2022-12-03T03:05:45.619Z,1.69
2022-12-03T03:08:12.671Z,1.95
2022-12-03T03:10:41.282Z,1.90
2022-12-03T03:13:11.735Z,2.14
2022-12-03T03:15:39.584Z,2.33
2022-12-03T03:18:08.637Z,2.32
2022-12-03T03:20:35.915Z,2.41
2022-12-03T03:23:11.616Z,2.58
2022-12-03T03:25:44.665Z,2.41
2022-12-03T03:28:12.493Z,2.02
2022-12-03T03:30:40.325Z,2.23
2022-12-03T03:33:07.185Z,2.26
2022-12-03T03:35:34.938Z,2.05
2022-12-03T03:38:01.797Z,1.75
2022-12-03T03:40:28.830Z,1.94
2022-12-03T03:42:57.581Z,2.40
2022-12-03T03:45:29.146Z,2.55
2022-12-03T03:47:58.181Z,2.40
2022-12-03T03:50:26.789Z,2.15
2022-12-03T03:52:53.639Z,2.31
2022-12-03T03:55:20.406Z,2.26
2022-12-03T03:57:48.340Z,2.31
2022-12-03T04:00:15.267Z,2.56
2022-12-03T04:02:41.842Z,2.32
2022-12-03T04:05:19.806Z,2.21
2022-12-03T04:07:46.609Z,2.13
2022-12-03T04:10:15.049Z,1.70
2022-12-03T04:12:41.624Z,2.13
2022-12-03T04:15:08.895Z,2.02
2022-12-03T04:17:35.488Z,1.72
2022-12-03T04:20:02.098Z,1.66
2022-12-03T04:22:28.774Z,1.96
2022-12-03T04:24:55.622Z,1.74
2022-12-03T04:27:22.394Z,1.88
2022-12-03T04:29:49.008Z,2.02
2022-12-03T04:32:15.581Z,2.04
2022-12-03T04:34:42.298Z,2.15
2022-12-03T04:37:09.857Z,1.90
2022-12-03T04:39:36.976Z,1.84
2022-12-03T04:42:04.682Z,2.15
2022-12-03T04:44:31.330Z,1.87
2022-12-03T04:46:57.933Z,2.03
2022-12-03T04:49:24.517Z,1.93
2022-12-03T04:51:51.088Z,2.14
2022-12-03T04:54:17.792Z,1.97
2022-12-03T04:56:44.698Z,2.06
2022-12-03T04:59:15.917Z,2.08
2022-12-03T05:01:43.026Z,2.02
2022-12-03T05:04:09.992Z,1.97
2022-12-03T05:06:36.581Z,2.17
2022-12-03T05:09:03.905Z,2.15
2022-12-03T05:11:30.495Z,2.07
2022-12-03T05:13:57.203Z,2.00
2022-12-03T05:16:23.839Z,1.93
2022-12-03T05:18:50.550Z,1.76
2022-12-03T05:21:17.219Z,2.08
2022-12-03T05:23:43.943Z,1.96
2022-12-03T05:26:10.565Z,2.31
2022-12-03T05:28:37.290Z,2.20
2022-12-03T05:31:03.940Z,2.02
2022-12-03T05:33:30.840Z,2.12
2022-12-03T05:35:57.430Z,2.14
2022-12-03T05:38:24.101Z,1.89
2022-12-03T05:40:50.811Z,1.79
2022-12-03T05:43:17.416Z,2.15
2022-12-03T05:45:44.666Z,2.06
2022-12-03T05:48:14.187Z,1.87
2022-12-03T05:50:42.464Z,1.71
2022-12-03T05:53:09.031Z,1.85
2022-12-03T05:55:35.608Z,2.23
2022-12-03T05:58:02.566Z,2.08
2022-12-03T06:00:31.261Z,2.12
2022-12-03T06:02:58.141Z,2.06
2022-12-03T06:05:25.627Z,2.02
2022-12-03T06:07:52.905Z,1.88
2022-12-03T06:10:22.705Z,1.94
2022-12-03T06:12:49.642Z,2.16
2022-12-03T06:15:16.333Z,2.00
2022-12-03T06:17:42.958Z,1.84
2022-12-03T06:20:14.107Z,2.09
2022-12-03T06:22:40.729Z,1.93
2022-12-03T06:25:08.169Z,1.82
2022-12-03T06:27:34.783Z,2.11
2022-12-03T06:30:01.764Z,2.28
2022-12-03T06:32:28.349Z,2.22
2022-12-03T06:34:55.227Z,2.11
2022-12-03T06:37:22.056Z,2.12
2022-12-03T06:39:48.660Z,1.97
2022-12-03T06:42:15.248Z,2.14
2022-12-03T06:44:41.914Z,1.98
2022-12-03T06:47:08.486Z,2.09
2022-12-03T06:49:35.067Z,2.13
2022-12-03T06:52:01.744Z,2.05
2022-12-03T06:54:28.399Z,1.87
2022-12-03T06:56:54.982Z,1.75
2022-12-03T06:59:21.590Z,1.93
2022-12-03T07:01:48.221Z,1.85
2022-12-03T07:04:14.812Z,2.09
2022-12-03T07:06:41.403Z,2.26
2022-12-03T07:09:08.011Z,1.92
2022-12-03T07:11:34.631Z,2.05
2022-12-03T07:14:05.485Z,2.06
2022-12-03T07:16:33.731Z,2.05
2022-12-03T07:19:00.535Z,2.01
2022-12-03T07:21:27.120Z,1.88
2022-12-03T07:23:53.692Z,1.99
2022-12-03T07:26:20.538Z,2.11
2022-12-03T07:28:47.239Z,2.07
2022-12-03T07:31:14.479Z,2.21
2022-12-03T07:33:41.086Z,2.43
2022-12-03T07:36:08.193Z,2.35
2022-12-03T07:38:34.779Z,2.47
2022-12-03T07:41:01.365Z,2.58
2022-12-03T07:43:27.940Z,2.58
2022-12-03T07:45:54.558Z,2.50
2022-12-03T07:48:21.158Z,2.33
2022-12-03T07:50:47.784Z,2.36
2022-12-03T07:53:14.432Z,2.24
2022-12-03T07:55:41.032Z,2.49
2022-12-03T07:58:07.671Z,2.63
2022-12-03T08:00:34.465Z,2.45
2022-12-03T08:03:01.092Z,2.78
2022-12-03T08:05:30.224Z,2.50
2022-12-03T08:07:56.875Z,2.78
2022-12-03T08:10:25.629Z,2.87
2022-12-03T08:12:52.351Z,2.80
2022-12-03T08:15:21.438Z,2.65
2022-12-03T08:17:54.847Z,2.75
2022-12-03T08:20:28.031Z,3.19
2022-12-03T08:22:55.805Z,3.10
2022-12-03T08:25:25.830Z,3.31
2022-12-03T08:27:56.524Z,3.26
2022-12-03T08:30:23.321Z,3.17
2022-12-03T08:32:51.180Z,2.62
2022-12-03T08:35:26.629Z,2.89
2022-12-03T08:38:06.170Z,2.60
2022-12-03T08:40:40.132Z,2.94
2022-12-03T08:43:19.729Z,2.75
2022-12-03T08:45:47.294Z,2.84
2022-12-03T08:48:32.957Z,2.78
2022-12-03T08:51:19.568Z,3.16
2022-12-03T08:53:55.373Z,3.06
2022-12-03T08:56:27.589Z,3.20
2022-12-03T08:59:00.312Z,3.21
2022-12-03T09:01:33.242Z,3.33
2022-12-03T09:04:16.170Z,3.65
2022-12-03T09:06:42.920Z,3.54
2022-12-03T09:09:09.495Z,3.43
2022-12-03T09:11:36.219Z,3.54
2022-12-03T09:14:03.359Z,3.50
2022-12-03T09:16:30.083Z,3.59
2022-12-03T09:18:56.782Z,3.79
2022-12-03T09:21:23.371Z,4.04
2022-12-03T09:23:49.941Z,4.06
2022-12-03T09:26:16.566Z,4.18
2022-12-03T09:28:43.164Z,4.17
2022-12-03T09:31:09.763Z,4.25
2022-12-03T09:33:36.414Z,4.16
2022-12-03T09:36:03.262Z,4.26
2022-12-03T09:38:29.862Z,4.14
2022-12-03T09:40:56.538Z,4.39
2022-12-03T09:43:24.451Z,4.42
2022-12-03T09:45:51.200Z,4.47
2022-12-03T09:48:20.151Z,4.48
2022-12-03T09:50:47.110Z,4.57
2022-12-03T09:53:18.029Z,4.38
2022-12-03T09:55:46.426Z,4.46
2022-12-03T09:58:15.624Z,4.38
2022-12-03T10:00:45.924Z,4.85
2022-12-03T10:03:14.942Z,5.14
2022-12-03T10:05:45.201Z,5.19
2022-12-03T10:08:17.660Z,5.09
2022-12-03T10:10:44.776Z,5.23
2022-12-03T10:13:23.936Z,5.21
2022-12-03T10:15:54.375Z,5.42
2022-12-03T10:18:31.074Z,5.25
2022-12-03T10:20:58.816Z,5.38
2022-12-03T10:23:29.768Z,5.35
2022-12-03T10:26:02.095Z,5.36
2022-12-03T10:28:37.009Z,5.51
2022-12-03T10:31:08.468Z,5.52
2022-12-03T10:33:43.368Z,5.65
2022-12-03T10:36:23.076Z,5.44
2022-12-03T10:39:11.262Z,5.40
2022-12-03T10:41:39.579Z,5.41
2022-12-03T10:44:20.369Z,5.66
2022-12-03T10:47:11.785Z,5.42
2022-12-03T10:49:39.797Z,5.68
2022-12-03T10:52:24.057Z,5.83
2022-12-03T10:54:52.389Z,5.72
2022-12-03T10:57:19.283Z,6.11
2022-12-03T10:59:45.976Z,5.84
2022-12-03T11:02:23.668Z,6.17
2022-12-03T11:04:51.914Z,6.09
2022-12-03T11:07:21.580Z,5.80
2022-12-03T11:09:50.513Z,5.82
2022-12-03T11:12:23.876Z,5.78
2022-12-03T11:14:50.658Z,6.00
2022-12-03T11:17:52.149Z,5.88
2022-12-03T11:20:24.929Z,6.15
2022-12-03T11:22:56.923Z,6.25
2022-12-03T11:25:26.488Z,6.25
2022-12-03T11:28:12.036Z,6.44
2022-12-03T11:30:50.787Z,6.36
2022-12-03T11:33:20.426Z,6.29
2022-12-03T11:36:05.256Z,6.26
2022-12-03T11:38:37.755Z,6.17
2022-12-03T11:41:23.693Z,6.31
2022-12-03T11:43:53.011Z,6.31
2022-12-03T11:46:23.417Z,6.38
2022-12-03T11:48:53.471Z,6.32
2022-12-03T11:51:23.292Z,6.38
2022-12-03T11:53:51.822Z,6.50
2022-12-03T11:56:22.864Z,6.32
2022-12-03T11:58:58.524Z,6.17
2022-12-03T12:01:40.440Z,6.25
2022-12-03T12:04:15.676Z,6.35
2022-12-03T12:06:44.563Z,6.31
2022-12-03T12:09:11.223Z,6.50
2022-12-03T12:11:39.338Z,6.59
2022-12-03T12:14:06.423Z,6.74
2022-12-03T12:16:48.796Z,6.74
2022-12-03T12:19:40.494Z,6.51
2022-12-03T12:22:25.296Z,6.81
2022-12-03T12:24:54.780Z,6.61
2022-12-03T12:27:36.562Z,6.63
2022-12-03T12:30:10.263Z,6.36
2022-12-03T12:32:48.547Z,6.31
2022-12-03T12:35:21.257Z,6.30
2022-12-03T12:37:56.835Z,6.20
2022-12-03T12:40:29.372Z,6.31
2022-12-03T12:42:58.814Z,6.54
2022-12-03T12:45:28.368Z,5.96
2022-12-03T12:47:57.999Z,6.11
2022-12-03T12:50:24.728Z,6.25
2022-12-03T12:53:01.458Z,6.45
2022-12-03T12:55:28.153Z,6.27
2022-12-03T12:57:59.613Z,6.43
2022-12-03T13:00:26.169Z,6.46
2022-12-03T13:03:01.451Z,6.34
2022-12-03T13:05:39.632Z,6.24
2022-12-03T13:08:27.790Z,6.18
2022-12-03T13:10:57.043Z,6.09
2022-12-03T13:13:43.313Z,6.11
2022-12-03T13:16:30.747Z,6.26
2022-12-03T13:18:59.658Z,6.22
2022-12-03T13:21:42.729Z,6.04
2022-12-03T13:24:48.382Z,5.92
2022-12-03T13:27:17.832Z,5.77
2022-12-03T13:29:45.665Z,5.64
2022-12-03T13:32:17.160Z,5.84
2022-12-03T13:34:44.165Z,5.77
2022-12-03T13:37:25.748Z,6.09
2022-12-03T13:39:57.662Z,5.96
2022-12-03T13:42:31.448Z,6.08
2022-12-03T13:44:58.051Z,5.85
2022-12-03T13:47:24.665Z,5.98
2022-12-03T13:49:57.434Z,6.06
2022-12-03T13:52:25.951Z,6.06
2022-12-03T13:54:55.137Z,6.00
2022-12-03T13:57:21.893Z,5.98
2022-12-03T13:59:48.769Z,5.64
2022-12-03T14:02:15.445Z,5.52
2022-12-03T14:04:42.168Z,5.45
2022-12-03T14:07:08.740Z,5.54
2022-12-03T14:09:35.355Z,5.92
2022-12-03T14:12:02.000Z,5.77
2022-12-03T14:14:28.580Z,5.85
2022-12-03T14:16:59.681Z,5.93
2022-12-03T14:19:26.735Z,5.76
2022-12-03T14:21:53.324Z,5.73
2022-12-03T14:24:22.817Z,5.46
2022-12-03T14:26:49.428Z,5.51
2022-12-03T14:29:16.021Z,5.61
2022-12-03T14:31:42.711Z,5.44
2022-12-03T14:34:09.348Z,5.81
2022-12-03T14:36:35.940Z,5.45
2022-12-03T14:39:02.555Z,5.69
2022-12-03T14:41:29.179Z,5.48
2022-12-03T14:43:55.778Z,5.48
2022-12-03T14:46:22.461Z,5.64
2022-12-03T14:48:49.130Z,5.38
2022-12-03T14:51:15.725Z,5.35
2022-12-03T14:53:42.404Z,5.58
2022-12-03T14:56:08.997Z,5.32
2022-12-03T14:58:35.588Z,5.16
2022-12-03T15:01:02.354Z,5.21
2022-12-03T15:03:28.968Z,5.26
2022-12-03T15:05:55.562Z,5.34
2022-12-03T15:08:22.298Z,5.06
2022-12-03T15:10:48.915Z,4.94
2022-12-03T15:13:15.509Z,5.02
2022-12-03T15:15:42.197Z,4.88
2022-12-03T15:18:08.779Z,5.23
2022-12-03T15:20:35.386Z,4.85
2022-12-03T15:23:02.117Z,4.85
2022-12-03T15:25:28.702Z,4.70
2022-12-03T15:27:55.315Z,4.77
2022-12-03T15:30:21.976Z,4.83
2022-12-03T15:32:48.681Z,4.86
2022-12-03T15:35:15.258Z,4.87
2022-12-03T15:37:41.898Z,4.66
2022-12-03T15:40:08.850Z,4.81
2022-12-03T15:42:35.453Z,4.69
2022-12-03T15:45:02.029Z,4.60
2022-12-03T15:47:28.618Z,4.65
2022-12-03T15:49:55.585Z,4.49
2022-12-03T15:52:22.528Z,4.34
2022-12-03T15:54:49.114Z,4.20
2022-12-03T15:57:16.072Z,4.36
2022-12-03T15:59:42.758Z,4.30
2022-12-03T16:02:09.595Z,4.39
2022-12-03T16:04:36.227Z,4.48
2022-12-03T16:07:02.837Z,4.45
2022-12-03T16:09:29.482Z,4.39
2022-12-03T16:11:56.077Z,4.63
2022-12-03T16:14:22.674Z,4.51
2022-12-03T16:16:49.359Z,4.44
2022-12-03T16:19:15.956Z,4.40
2022-12-03T16:21:42.517Z,4.04
2022-12-03T16:24:09.192Z,3.94
2022-12-03T16:26:35.805Z,4.24
2022-12-03T16:29:02.416Z,4.14
2022-12-03T16:31:29.080Z,4.05
2022-12-03T16:33:55.762Z,3.89
2022-12-03T16:36:22.358Z,3.73
2022-12-03T16:38:48.974Z,3.65
2022-12-03T16:41:15.576Z,3.62
2022-12-03T16:43:42.158Z,3.70
2022-12-03T16:46:08.827Z,3.61
2022-12-03T16:48:35.679Z,3.69
2022-12-03T16:51:02.252Z,3.82
2022-12-03T16:53:28.868Z,3.83
2022-12-03T16:55:55.453Z,3.86
2022-12-03T16:58:22.042Z,3.69
2022-12-03T17:00:49.537Z,3.55
2022-12-03T17:03:16.864Z,3.64
2022-12-03T17:05:44.263Z,3.57
2022-12-03T17:08:10.885Z,3.73
2022-12-03T17:10:37.770Z,3.59
2022-12-03T17:13:11.709Z,3.63
2022-12-03T17:15:39.450Z,3.77
2022-12-03T17:18:07.061Z,3.97
2022-12-03T17:20:34.424Z,3.54
2022-12-03T17:23:01.024Z,3.56
2022-12-03T17:25:28.428Z,3.63
2022-12-03T17:27:55.125Z,3.78
2022-12-03T17:30:21.845Z,3.63
2022-12-03T17:32:48.417Z,3.57
2022-12-03T17:35:15.001Z,3.74
2022-12-03T17:37:41.646Z,3.74
2022-12-03T17:40:10.893Z,3.58
2022-12-03T17:42:37.510Z,3.50
2022-12-03T17:45:05.297Z,3.31
2022-12-03T17:47:31.903Z,3.15
2022-12-03T17:49:58.538Z,3.46
2022-12-03T17:52:25.198Z,3.18
2022-12-03T17:57:38.428Z,3.25
2022-12-03T18:00:06.128Z,3.34
2022-12-03T18:02:32.754Z,3.65
2022-12-03T18:04:59.338Z,3.75
2022-12-03T18:07:25.937Z,3.75
2022-12-03T18:09:52.894Z,3.61
2022-12-03T18:12:19.828Z,3.07
2022-12-03T18:14:46.402Z,2.96
2022-12-03T18:17:13.020Z,3.06
2022-12-03T18:19:39.652Z,3.43
2022-12-03T18:22:06.240Z,3.26
2022-12-03T18:24:32.900Z,3.42
2022-12-03T18:26:59.531Z,3.31
2022-12-03T18:29:26.199Z,3.43
2022-12-03T18:31:52.885Z,3.41
2022-12-03T18:34:19.514Z,3.18
2022-12-03T18:36:46.387Z,3.06
2022-12-03T18:39:25.129Z,3.09
2022-12-03T18:41:53.162Z,2.91
2022-12-03T18:44:20.003Z,2.76
2022-12-03T18:46:54.738Z,2.99
2022-12-03T18:49:21.945Z,2.68
2022-12-03T18:51:49.311Z,2.70
2022-12-03T18:54:17.146Z,2.71
2022-12-03T18:56:43.759Z,2.80
2022-12-03T18:59:10.334Z,2.69
2022-12-03T19:01:37.045Z,2.74
2022-12-03T19:04:03.761Z,2.89
2022-12-03T19:06:30.520Z,2.88
2022-12-03T19:08:57.640Z,2.87
2022-12-03T19:11:24.872Z,2.98
2022-12-03T19:13:51.549Z,2.69
2022-12-03T19:16:18.303Z,2.66
2022-12-03T19:18:45.911Z,2.85
2022-12-03T19:21:15.778Z,2.76
2022-12-03T19:23:47.266Z,2.82
2022-12-03T19:26:25.650Z,3.01
2022-12-03T19:28:52.258Z,3.00
2022-12-03T19:31:18.928Z,3.06
2022-12-03T19:33:45.531Z,3.27
2022-12-03T19:36:30.178Z,3.04
2022-12-03T19:38:59.170Z,3.15
2022-12-03T19:41:27.586Z,3.04
2022-12-03T19:43:56.186Z,3.01
2022-12-03T19:46:25.051Z,3.27
2022-12-03T19:48:51.753Z,3.32
2022-12-03T19:51:34.812Z,3.05
2022-12-03T19:54:03.164Z,3.21
2022-12-03T19:56:29.869Z,2.97
2022-12-03T19:58:56.629Z,2.78
2022-12-03T20:01:26.471Z,2.70
2022-12-03T20:03:55.005Z,2.80
2022-12-03T20:06:23.870Z,2.94
2022-12-03T20:08:55.030Z,2.97
2022-12-03T20:11:25.357Z,2.93
2022-12-03T20:13:55.388Z,2.83
2022-12-03T20:16:22.502Z,2.99
2022-12-03T20:18:49.863Z,2.93
2022-12-03T20:21:18.228Z,2.88
2022-12-03T20:23:45.340Z,3.24
2022-12-03T20:26:14.943Z,3.14
2022-12-03T20:28:42.408Z,3.27
2022-12-03T20:31:13.038Z,3.08
2022-12-03T20:33:41.987Z,2.85
2022-12-03T20:36:09.836Z,2.66
2022-12-03T20:38:36.460Z,2.78
2022-12-03T20:41:06.255Z,2.37
2022-12-03T20:43:33.840Z,2.61
2022-12-03T20:46:23.578Z,2.83
2022-12-03T20:48:50.272Z,2.76
2022-12-03T20:51:19.369Z,2.61
2022-12-03T20:53:46.649Z,2.38
2022-12-03T20:56:22.915Z,2.35
2022-12-03T20:58:50.313Z,2.55
2022-12-03T21:01:20.603Z,2.52
2022-12-03T21:03:48.038Z,2.75
2022-12-03T21:06:16.797Z,2.97
2022-12-03T21:08:43.858Z,2.66
2022-12-03T21:11:16.121Z,2.80
2022-12-03T21:13:42.861Z,2.89
2022-12-03T21:16:13.264Z,2.68
2022-12-03T21:18:40.157Z,2.82
2022-12-03T21:21:07.091Z,2.95
2022-12-03T21:23:34.793Z,2.80
2022-12-03T21:26:06.050Z,3.03
2022-12-03T21:28:32.963Z,2.72
2022-12-03T21:31:01.341Z,2.83
2022-12-03T21:33:28.355Z,2.88
2022-12-03T21:35:55.557Z,2.77
2022-12-03T21:38:22.804Z,2.99
2022-12-03T21:40:49.400Z,3.13
2022-12-03T21:43:16.139Z,2.96
2022-12-03T21:45:42.829Z,2.97
2022-12-03T21:48:09.745Z,3.08
2022-12-03T21:50:36.646Z,3.16
2022-12-03T21:53:03.407Z,3.16
2022-12-03T21:55:30.149Z,3.14
2022-12-03T21:57:56.742Z,3.13
2022-12-03T22:00:23.399Z,3.30
2022-12-03T22:02:50.139Z,3.15
2022-12-03T22:05:16.787Z,3.24
2022-12-03T22:07:43.477Z,3.21
2022-12-03T22:10:11.562Z,3.20
2022-12-03T22:12:38.161Z,3.34
2022-12-03T22:15:05.235Z,3.37
2022-12-03T22:17:31.853Z,3.23
2022-12-03T22:19:58.454Z,3.17
2022-12-03T22:22:25.041Z,2.90
2022-12-03T22:24:51.626Z,2.92
2022-12-03T22:27:18.232Z,3.04
2022-12-03T22:29:44.893Z,3.34
2022-12-03T22:32:12.887Z,3.30
2022-12-03T22:34:41.691Z,3.34
2022-12-03T22:37:08.838Z,3.55
2022-12-03T22:39:35.434Z,3.51
2022-12-03T22:42:02.099Z,3.49
2022-12-03T22:44:28.779Z,3.05
2022-12-03T22:46:55.400Z,3.36
2022-12-03T22:49:23.454Z,3.46
2022-12-03T22:51:50.113Z,3.46
2022-12-03T22:54:22.308Z,3.40
2022-12-03T22:56:51.164Z,3.62
2022-12-03T22:59:17.731Z,3.54
2022-12-03T23:01:44.369Z,3.42
2022-12-03T23:04:11.513Z,3.35
2022-12-03T23:06:38.603Z,3.20
2022-12-03T23:09:07.742Z,3.31
2022-12-03T23:11:34.941Z,3.37
2022-12-03T23:14:02.197Z,3.31
2022-12-03T23:16:31.596Z,3.43
2022-12-03T23:19:00.214Z,3.24
2022-12-03T23:21:30.709Z,3.30
2022-12-03T23:24:01.936Z,3.17
2022-12-03T23:26:29.072Z,3.07
2022-12-03T23:28:56.250Z,3.13
2022-12-03T23:31:25.815Z,3.10
2022-12-03T23:33:53.834Z,3.10
2022-12-03T23:36:22.275Z,3.17
2022-12-03T23:38:49.021Z,2.93
2022-12-03T23:41:19.067Z,2.88
2022-12-03T23:43:45.901Z,3.11
2022-12-03T23:46:15.299Z,3.07
2022-12-03T23:48:42.695Z,3.14
2022-12-03T23:51:14.674Z,3.06
2022-12-03T23:53:41.924Z,2.98
2022-12-03T23:56:20.170Z,2.85
2022-12-03T23:58:46.888Z,2.67
